Orange, New Jersey
Current Conditions -  °F | °C
As of 1:51 PM on Friday 21 Nov 2014 (Local Time) from KEWR Reporting Station
Few Clouds Few Clouds  
Wind Chill: 27°   Ceiling: Unl
Heat Index: 38°   Visibility: 10mi
Dew Point:   Wind: 23mph
Humidity: 28%   Direction: 310°NW
Pressure: 30.32"   Gusts: 29mph
Location:  40.77°N, 74.23°W
Report Text: KEWR 211851Z 31020G25KT 10SM FEW060 03/M14 A3032 RMK AO2 SLP267 T00331139 $
Loading
Personal Weather Stations






























Interactive Weather Map New forecast layout! Learn more

10-Day Weather Forecast

Advertisements
Track Severe Weather on mobile